Аэропорт: Внуково. Москва

ICAO: UUWW

METAR:
2019-09-21 15:30:00
UUWW 211530Z 23006MPS CAVOK 08/M01 Q1010 R24/000070 NOSIG
METAR:
2019-09-21 13:50:00
TAF UUWW 211350Z 2115/2215 24003G08MPS 9999 SCT020 TX08/2115Z TN05/2203Z BECMG 2119/2121 BKN011 TEMPO 2121/2215 3100 -SHRA BKN005 BKN015CB BECMG 2203/2205 30009G16MPS